sensor_id;sensor_type;location;lat;lon;timestamp;pressure;altitude;pressure_sealevel;temperature;humidity
43814;BME280;29669;55.706;37.656;2023-02-04T00:00:25;99418.59;;;2.45;nan
43814;BME280;29669;55.706;37.656;2023-02-04T00:02:57;99424.41;;;2.47;nan
43814;BME280;29669;55.706;37.656;2023-02-04T00:05:25;99425.72;;;2.42;nan
43814;BME280;29669;55.706;37.656;2023-02-04T00:07:52;99434.44;;;2.39;nan
43814;BME280;29669;55.706;37.656;2023-02-04T00:10:20;99421.06;;;2.36;nan
43814;BME280;29669;55.706;37.656;2023-02-04T00:12:47;99423.50;;;2.37;nan
43814;BME280;29669;55.706;37.656;2023-02-04T00:15:15;99431.06;;;2.39;nan
43814;BME280;29669;55.706;37.656;2023-02-04T00:17:43;99431.19;;;2.37;nan
43814;BME280;29669;55.706;37.656;2023-02-04T00:20:11;99432.94;;;2.37;nan
43814;BME280;29669;55.706;37.656;2023-02-04T00:22:39;99431.06;;;2.39;nan
43814;BME280;29669;55.706;37.656;2023-02-04T00:27:35;99446.19;;;2.42;nan
43814;BME280;29669;55.706;37.656;2023-02-04T00:30:03;99442.69;;;2.43;nan
43814;BME280;29669;55.706;37.656;2023-02-04T00:32:33;99435.97;;;2.42;nan
43814;BME280;29669;55.706;37.656;2023-02-04T00:35:01;99445.25;;;2.43;nan
43814;BME280;29669;55.706;37.656;2023-02-04T00:37:31;99435.72;;;2.45;nan
43814;BME280;29669;55.706;37.656;2023-02-04T00:39:59;99447.09;;;2.52;nan
43814;BME280;29669;55.706;37.656;2023-02-04T00:42:27;99444.53;;;2.52;nan
43814;BME280;29669;55.706;37.656;2023-02-04T00:47:22;99441.75;;;2.55;nan
43814;BME280;29669;55.706;37.656;2023-02-04T00:49:50;99454.31;;;2.58;nan
43814;BME280;29669;55.706;37.656;2023-02-04T00:52:18;99452.31;;;2.61;nan
43814;BME280;29669;55.706;37.656;2023-02-04T00:54:46;99450.56;;;2.62;nan
43814;BME280;29669;55.706;37.656;2023-02-04T00:57:14;99466.16;;;2.70;nan
43814;BME280;29669;55.706;37.656;2023-02-04T00:59:42;99463.72;;;2.68;nan
43814;BME280;29669;55.706;37.656;2023-02-04T01:02:10;99457.09;;;2.66;nan
43814;BME280;29669;55.706;37.656;2023-02-04T01:04:38;99463.94;;;2.65;nan
43814;BME280;29669;55.706;37.656;2023-02-04T01:07:08;99465.25;;;2.60;nan
43814;BME280;29669;55.706;37.656;2023-02-04T01:09:41;99468.75;;;2.59;nan
43814;BME280;29669;55.706;37.656;2023-02-04T01:12:09;99474.59;;;2.61;nan
43814;BME280;29669;55.706;37.656;2023-02-04T01:14:36;99465.72;;;2.54;nan
43814;BME280;29669;55.706;37.656;2023-02-04T01:17:04;99472.50;;;2.55;nan
43814;BME280;29669;55.706;37.656;2023-02-04T01:19:32;99475.28;;;2.52;nan
43814;BME280;29669;55.706;37.656;2023-02-04T01:22:00;99473.78;;;2.49;nan
43814;BME280;29669;55.706;37.656;2023-02-04T01:24:28;99467.84;;;2.49;nan
43814;BME280;29669;55.706;37.656;2023-02-04T01:27:14;99476.47;;;2.48;nan
43814;BME280;29669;55.706;37.656;2023-02-04T01:29:42;99476.47;;;2.48;nan
43814;BME280;29669;55.706;37.656;2023-02-04T01:32:10;99476.47;;;2.48;nan
43814;BME280;29669;55.706;37.656;2023-02-04T01:34:37;99480.53;;;2.50;nan
43814;BME280;29669;55.706;37.656;2023-02-04T01:37:05;99477.13;;;2.50;nan
43814;BME280;29669;55.706;37.656;2023-02-04T01:39:33;99482.97;;;2.52;nan
43814;BME280;29669;55.706;37.656;2023-02-04T01:42:02;99493.91;;;2.54;nan
43814;BME280;29669;55.706;37.656;2023-02-04T01:44:30;99484.47;;;2.54;nan
43814;BME280;29669;55.706;37.656;2023-02-04T01:46:59;99491.25;;;2.55;nan
43814;BME280;29669;55.706;37.656;2023-02-04T01:51:55;99487.03;;;2.54;nan
43814;BME280;29669;55.706;37.656;2023-02-04T01:54:24;99496.25;;;2.57;nan
43814;BME280;29669;55.706;37.656;2023-02-04T01:56:54;99502.28;;;2.56;nan
43814;BME280;29669;55.706;37.656;2023-02-04T01:59:23;99494.72;;;2.54;nan
43814;BME280;29669;55.706;37.656;2023-02-04T02:01:52;99500.19;;;2.61;nan
43814;BME280;29669;55.706;37.656;2023-02-04T02:04:29;99506.38;;;2.58;nan
43814;BME280;29669;55.706;37.656;2023-02-04T02:07:02;99507.06;;;2.60;nan
43814;BME280;29669;55.706;37.656;2023-02-04T02:12:00;99520.13;;;2.57;nan
43814;BME280;29669;55.706;37.656;2023-02-04T02:14:29;99516.88;;;2.55;nan
43814;BME280;29669;55.706;37.656;2023-02-04T02:16:57;99522.09;;;2.54;nan
43814;BME280;29669;55.706;37.656;2023-02-04T02:19:28;99524.56;;;2.55;nan
43814;BME280;29669;55.706;37.656;2023-02-04T02:22:05;99517.91;;;2.53;nan
43814;BME280;29669;55.706;37.656;2023-02-04T02:27:07;99526.88;;;2.47;nan
43814;BME280;29669;55.706;37.656;2023-02-04T02:29:37;99524.53;;;2.44;nan
43814;BME280;29669;55.706;37.656;2023-02-04T02:32:07;99524.44;;;2.46;nan
43814;BME280;29669;55.706;37.656;2023-02-04T02:34:36;99515.13;;;2.45;nan
43814;BME280;29669;55.706;37.656;2023-02-04T02:39:36;99523.94;;;2.52;nan
43814;BME280;29669;55.706;37.656;2023-02-04T02:42:05;99534.19;;;2.52;nan
43814;BME280;29669;55.706;37.656;2023-02-04T02:44:33;99525.59;;;2.53;nan
43814;BME280;29669;55.706;37.656;2023-02-04T02:47:01;99542.81;;;2.62;nan
43814;BME280;29669;55.706;37.656;2023-02-04T02:49:30;99534.28;;;2.61;nan
43814;BME280;29669;55.706;37.656;2023-02-04T02:51:59;99535.81;;;2.64;nan
43814;BME280;29669;55.706;37.656;2023-02-04T02:54:30;99540.47;;;2.70;nan
43814;BME280;29669;55.706;37.656;2023-02-04T02:57:02;99545.47;;;2.71;nan
43814;BME280;29669;55.706;37.656;2023-02-04T02:59:31;99546.50;;;2.69;nan
43814;BME280;29669;55.706;37.656;2023-02-04T03:02:01;99554.00;;;2.72;nan
43814;BME280;29669;55.706;37.656;2023-02-04T03:04:36;99560.84;;;2.71;nan
43814;BME280;29669;55.706;37.656;2023-02-04T03:09:35;99569.81;;;2.77;nan
43814;BME280;29669;55.706;37.656;2023-02-04T03:12:04;99565.72;;;2.74;nan
43814;BME280;29669;55.706;37.656;2023-02-04T03:14:34;99560.53;;;2.65;nan
43814;BME280;29669;55.706;37.656;2023-02-04T03:17:06;99552.34;;;2.60;nan
43814;BME280;29669;55.706;37.656;2023-02-04T03:19:36;99562.38;;;2.63;nan
43814;BME280;29669;55.706;37.656;2023-02-04T03:22:06;99568.88;;;2.67;nan
43814;BME280;29669;55.706;37.656;2023-02-04T03:24:35;99559.69;;;2.64;nan
43814;BME280;29669;55.706;37.656;2023-02-04T03:27:03;99557.25;;;2.63;nan
43814;BME280;29669;55.706;37.656;2023-02-04T03:29:44;99581.69;;;2.67;nan
43814;BME280;29669;55.706;37.656;2023-02-04T03:32:12;99571.00;;;2.62;nan
43814;BME280;29669;55.706;37.656;2023-02-04T03:34:40;99577.75;;;2.63;nan
43814;BME280;29669;55.706;37.656;2023-02-04T03:37:08;99574.50;;;2.61;nan
43814;BME280;29669;55.706;37.656;2023-02-04T03:39:36;99581.38;;;2.60;nan
43814;BME280;29669;55.706;37.656;2023-02-04T03:44:31;99580.53;;;2.60;nan
43814;BME280;29669;55.706;37.656;2023-02-04T03:46:59;99598.00;;;2.66;nan
43814;BME280;29669;55.706;37.656;2023-02-04T03:49:27;99587.06;;;2.64;nan
43814;BME280;29669;55.706;37.656;2023-02-04T03:51:55;99590.91;;;2.69;nan
43814;BME280;29669;55.706;37.656;2023-02-04T03:54:23;99588.59;;;2.66;nan
43814;BME280;29669;55.706;37.656;2023-02-04T03:56:51;99585.91;;;2.68;nan
43814;BME280;29669;55.706;37.656;2023-02-04T03:59:19;99588.72;;;2.65;nan
43814;BME280;29669;55.706;37.656;2023-02-04T04:01:47;99596.16;;;2.68;nan
43814;BME280;29669;55.706;37.656;2023-02-04T04:04:15;99601.28;;;2.68;nan
43814;BME280;29669;55.706;37.656;2023-02-04T04:06:43;99602.66;;;2.72;nan
43814;BME280;29669;55.706;37.656;2023-02-04T04:09:10;99598.25;;;2.74;nan
43814;BME280;29669;55.706;37.656;2023-02-04T04:11:38;99609.41;;;2.73;nan
43814;BME280;29669;55.706;37.656;2023-02-04T04:14:05;99600.56;;;2.66;nan
43814;BME280;29669;55.706;37.656;2023-02-04T04:16:33;99606.41;;;2.68;nan
43814;BME280;29669;55.706;37.656;2023-02-04T04:21:29;99605.94;;;2.74;nan
43814;BME280;29669;55.706;37.656;2023-02-04T04:23:57;99606.63;;;2.76;nan
43814;BME280;29669;55.706;37.656;2023-02-04T04:26:25;99614.06;;;2.79;nan
43814;BME280;29669;55.706;37.656;2023-02-04T04:28:53;99618.97;;;2.82;nan
43814;BME280;29669;55.706;37.656;2023-02-04T04:31:23;99616.50;;;2.80;nan
43814;BME280;29669;55.706;37.656;2023-02-04T04:33:54;99617.09;;;2.84;nan
43814;BME280;29669;55.706;37.656;2023-02-04T04:36:30;99620.59;;;2.83;nan
43814;BME280;29669;55.706;37.656;2023-02-04T04:38:58;99618.88;;;2.83;nan
43814;BME280;29669;55.706;37.656;2023-02-04T04:41:26;99620.34;;;2.86;nan
43814;BME280;29669;55.706;37.656;2023-02-04T04:43:53;99626.44;;;2.85;nan
43814;BME280;29669;55.706;37.656;2023-02-04T04:46:21;99620.34;;;2.86;nan
43814;BME280;29669;55.706;37.656;2023-02-04T04:48:48;99621.31;;;2.85;nan
43814;BME280;29669;55.706;37.656;2023-02-04T04:51:16;99627.34;;;2.84;nan
43814;BME280;29669;55.706;37.656;2023-02-04T04:56:11;99632.72;;;2.59;nan
43814;BME280;29669;55.706;37.656;2023-02-04T05:01:06;99636.91;;;2.49;nan
43814;BME280;29669;55.706;37.656;2023-02-04T05:03:34;99639.00;;;2.44;nan
43814;BME280;29669;55.706;37.656;2023-02-04T05:06:02;99637.94;;;2.35;nan
43814;BME280;29669;55.706;37.656;2023-02-04T05:08:30;99640.34;;;2.26;nan
43814;BME280;29669;55.706;37.656;2023-02-04T05:10:57;99646.41;;;2.14;nan
43814;BME280;29669;55.706;37.656;2023-02-04T05:13:25;99644.00;;;2.00;nan
43814;BME280;29669;55.706;37.656;2023-02-04T05:15:53;99646.81;;;1.97;nan
43814;BME280;29669;55.706;37.656;2023-02-04T05:18:20;99651.81;;;1.98;nan
43814;BME280;29669;55.706;37.656;2023-02-04T05:20:48;99660.09;;;2.02;nan
43814;BME280;29669;55.706;37.656;2023-02-04T05:23:16;99663.47;;;2.02;nan
43814;BME280;29669;55.706;37.656;2023-02-04T05:25:43;99674.06;;;2.09;nan
43814;BME280;29669;55.706;37.656;2023-02-04T05:28:11;99672.72;;;2.16;nan
43814;BME280;29669;55.706;37.656;2023-02-04T05:30:38;99673.38;;;2.18;nan
43814;BME280;29669;55.706;37.656;2023-02-04T05:33:06;99683.41;;;2.21;nan
43814;BME280;29669;55.706;37.656;2023-02-04T05:35:34;99684.00;;;2.24;nan
43814;BME280;29669;55.706;37.656;2023-02-04T05:38:02;99681.31;;;2.26;nan
43814;BME280;29669;55.706;37.656;2023-02-04T05:40:29;99689.97;;;2.36;nan
43814;BME280;29669;55.706;37.656;2023-02-04T05:42:57;99693.72;;;2.43;nan
43814;BME280;29669;55.706;37.656;2023-02-04T05:45:25;99686.41;;;2.49;nan
43814;BME280;29669;55.706;37.656;2023-02-04T05:47:53;99700.38;;;2.56;nan
43814;BME280;29669;55.706;37.656;2023-02-04T05:52:48;99693.84;;;2.63;nan
43814;BME280;29669;55.706;37.656;2023-02-04T05:55:16;99706.34;;;2.68;nan
43814;BME280;29669;55.706;37.656;2023-02-04T05:57:43;99703.78;;;2.68;nan
43814;BME280;29669;55.706;37.656;2023-02-04T06:00:12;99704.00;;;2.65;nan
43814;BME280;29669;55.706;37.656;2023-02-04T06:02:40;99717.63;;;2.65;nan
43814;BME280;29669;55.706;37.656;2023-02-04T06:05:08;99726.13;;;2.66;nan
43814;BME280;29669;55.706;37.656;2023-02-04T06:07:35;99719.59;;;2.62;nan
43814;BME280;29669;55.706;37.656;2023-02-04T06:10:03;99726.38;;;2.63;nan
43814;BME280;29669;55.706;37.656;2023-02-04T06:12:31;99712.63;;;2.64;nan
43814;BME280;29669;55.706;37.656;2023-02-04T06:14:59;99730.81;;;2.72;nan
43814;BME280;29669;55.706;37.656;2023-02-04T06:17:27;99736.06;;;2.81;nan
43814;BME280;29669;55.706;37.656;2023-02-04T06:19:58;99741.44;;;2.90;nan
43814;BME280;29669;55.706;37.656;2023-02-04T06:22:30;99736.31;;;2.90;nan
43814;BME280;29669;55.706;37.656;2023-02-04T06:25:00;99744.59;;;2.93;nan
43814;BME280;29669;55.706;37.656;2023-02-04T06:27:29;99736.31;;;2.90;nan
43814;BME280;29669;55.706;37.656;2023-02-04T06:29:57;99742.34;;;2.88;nan
43814;BME280;29669;55.706;37.656;2023-02-04T06:32:38;99752.97;;;2.95;nan
43814;BME280;29669;55.706;37.656;2023-02-04T06:35:09;99743.63;;;2.94;nan
43814;BME280;29669;55.706;37.656;2023-02-04T06:37:39;99761.00;;;2.91;nan
43814;BME280;29669;55.706;37.656;2023-02-04T06:40:07;99758.56;;;2.89;nan
43814;BME280;29669;55.706;37.656;2023-02-04T06:42:39;99756.91;;;2.88;nan
43814;BME280;29669;55.706;37.656;2023-02-04T06:45:06;99766.72;;;2.94;nan
43814;BME280;29669;55.706;37.656;2023-02-04T06:47:34;99765.22;;;3.03;nan
43814;BME280;29669;55.706;37.656;2023-02-04T06:50:04;99768.00;;;3.11;nan
43814;BME280;29669;55.706;37.656;2023-02-04T06:54:59;99765.66;;;3.30;nan
43814;BME280;29669;55.706;37.656;2023-02-04T06:59:54;99781.16;;;3.50;nan
43814;BME280;29669;55.706;37.656;2023-02-04T07:02:22;99788.38;;;3.67;nan
43814;BME280;29669;55.706;37.656;2023-02-04T07:04:53;99786.31;;;3.72;nan
43814;BME280;29669;55.706;37.656;2023-02-04T07:07:21;99790.25;;;3.88;nan
43814;BME280;29669;55.706;37.656;2023-02-04T07:09:49;99794.41;;;4.00;nan
43814;BME280;29669;55.706;37.656;2023-02-04T07:12:17;99786.31;;;4.15;nan
43814;BME280;29669;55.706;37.656;2023-02-04T07:14:44;99798.31;;;4.26;nan
43814;BME280;29669;55.706;37.656;2023-02-04T07:17:18;99801.09;;;4.23;nan
43814;BME280;29669;55.706;37.656;2023-02-04T07:19:46;99797.72;;;4.22;nan
43814;BME280;29669;55.706;37.656;2023-02-04T07:22:14;99806.47;;;4.31;nan
43814;BME280;29669;55.706;37.656;2023-02-04T07:24:42;99811.47;;;4.32;nan
43814;BME280;29669;55.706;37.656;2023-02-04T07:27:09;99809.75;;;4.22;nan
43814;BME280;29669;55.706;37.656;2023-02-04T07:29:37;99808.38;;;4.18;nan
43814;BME280;29669;55.706;37.656;2023-02-04T07:32:05;99815.59;;;4.24;nan
43814;BME280;29669;55.706;37.656;2023-02-04T07:34:33;99802.75;;;4.24;nan
43814;BME280;29669;55.706;37.656;2023-02-04T07:37:01;99818.38;;;4.21;nan
43814;BME280;29669;55.706;37.656;2023-02-04T07:39:29;99813.81;;;4.24;nan
43814;BME280;29669;55.706;37.656;2023-02-04T07:42:00;99810.97;;;4.38;nan
43814;BME280;29669;55.706;37.656;2023-02-04T07:44:34;99822.25;;;4.47;nan
43814;BME280;29669;55.706;37.656;2023-02-04T07:47:03;99818.28;;;4.54;nan
43814;BME280;29669;55.706;37.656;2023-02-04T07:49:31;99816.34;;;4.67;nan
43814;BME280;29669;55.706;37.656;2023-02-04T07:51:59;99822.50;;;4.75;nan
43814;BME280;29669;55.706;37.656;2023-02-04T07:54:27;99822.44;;;4.87;nan
43814;BME280;29669;55.706;37.656;2023-02-04T07:56:55;99827.41;;;4.99;nan
43814;BME280;29669;55.706;37.656;2023-02-04T07:59:23;99830.13;;;5.07;nan
43814;BME280;29669;55.706;37.656;2023-02-04T08:01:50;99820.31;;;5.12;nan
43814;BME280;29669;55.706;37.656;2023-02-04T08:04:18;99829.41;;;5.16;nan
43814;BME280;29669;55.706;37.656;2023-02-04T08:06:45;99828.94;;;5.11;nan
43814;BME280;29669;55.706;37.656;2023-02-04T08:09:13;99829.13;;;5.19;nan
43814;BME280;29669;55.706;37.656;2023-02-04T08:11:41;99824.03;;;5.29;nan
43814;BME280;29669;55.706;37.656;2023-02-04T08:14:09;99824.50;;;5.43;nan
43814;BME280;29669;55.706;37.656;2023-02-04T08:16:36;99834.84;;;5.53;nan
43814;BME280;29669;55.706;37.656;2023-02-04T08:19:04;99836.88;;;5.49;nan
43814;BME280;29669;55.706;37.656;2023-02-04T08:21:32;99832.41;;;5.21;nan
43814;BME280;29669;55.706;37.656;2023-02-04T08:24:00;99840.06;;;5.12;nan
43814;BME280;29669;55.706;37.656;2023-02-04T08:26:27;99835.81;;;5.01;nan
43814;BME280;29669;55.706;37.656;2023-02-04T08:28:55;99853.34;;;4.96;nan
43814;BME280;29669;55.706;37.656;2023-02-04T08:31:23;99858.50;;;4.96;nan
43814;BME280;29669;55.706;37.656;2023-02-04T08:33:50;99848.75;;;4.90;nan
43814;BME280;29669;55.706;37.656;2023-02-04T08:36:18;99851.66;;;4.86;nan
43814;BME280;29669;55.706;37.656;2023-02-04T08:38:46;99856.19;;;4.72;nan
43814;BME280;29669;55.706;37.656;2023-02-04T08:41:13;99851.53;;;4.66;nan
43814;BME280;29669;55.706;37.656;2023-02-04T08:43:41;99859.56;;;4.73;nan
43814;BME280;29669;55.706;37.656;2023-02-04T08:46:09;99856.13;;;4.84;nan
43814;BME280;29669;55.706;37.656;2023-02-04T08:48:37;99862.22;;;5.03;nan
43814;BME280;29669;55.706;37.656;2023-02-04T08:51:04;99866.72;;;5.31;nan
43814;BME280;29669;55.706;37.656;2023-02-04T08:53:32;99864.31;;;5.60;nan
43814;BME280;29669;55.706;37.656;2023-02-04T08:56:00;99862.75;;;5.78;nan
43814;BME280;29669;55.706;37.656;2023-02-04T08:58:27;99871.59;;;5.85;nan
43814;BME280;29669;55.706;37.656;2023-02-04T09:00:55;99866.63;;;5.93;nan
43814;BME280;29669;55.706;37.656;2023-02-04T09:03:23;99868.84;;;6.07;nan
43814;BME280;29669;55.706;37.656;2023-02-04T09:05:55;99869.38;;;6.11;nan
43814;BME280;29669;55.706;37.656;2023-02-04T09:08:22;99870.19;;;6.21;nan
43814;BME280;29669;55.706;37.656;2023-02-04T09:10:52;99876.63;;;6.26;nan
43814;BME280;29669;55.706;37.656;2023-02-04T09:13:20;99873.91;;;6.28;nan
43814;BME280;29669;55.706;37.656;2023-02-04T09:15:48;99873.22;;;6.26;nan
43814;BME280;29669;55.706;37.656;2023-02-04T09:18:15;99877.84;;;6.32;nan
43814;BME280;29669;55.706;37.656;2023-02-04T09:20:45;99876.59;;;6.36;nan
43814;BME280;29669;55.706;37.656;2023-02-04T09:23:13;99877.97;;;6.40;nan
43814;BME280;29669;55.706;37.656;2023-02-04T09:25:42;99878.41;;;6.45;nan
43814;BME280;29669;55.706;37.656;2023-02-04T09:28:12;99877.88;;;6.51;nan
43814;BME280;29669;55.706;37.656;2023-02-04T09:30:43;99879.50;;;6.52;nan
43814;BME280;29669;55.706;37.656;2023-02-04T09:33:15;99882.75;;;6.54;nan
43814;BME280;29669;55.706;37.656;2023-02-04T09:35:43;99878.28;;;6.56;nan
43814;BME280;29669;55.706;37.656;2023-02-04T09:38:11;99888.59;;;6.56;nan
43814;BME280;29669;55.706;37.656;2023-02-04T09:40:46;99882.75;;;6.54;nan
43814;BME280;29669;55.706;37.656;2023-02-04T09:43:20;99885.31;;;6.54;nan
43814;BME280;29669;55.706;37.656;2023-02-04T09:45:48;99896.31;;;6.46;nan
43814;BME280;29669;55.706;37.656;2023-02-04T09:48:17;99891.41;;;6.34;nan
43814;BME280;29669;55.706;37.656;2023-02-04T09:50:45;99896.56;;;6.24;nan
43814;BME280;29669;55.706;37.656;2023-02-04T09:53:15;99897.47;;;6.14;nan
43814;BME280;29669;55.706;37.656;2023-02-04T09:55:45;99898.53;;;6.02;nan
43814;BME280;29669;55.706;37.656;2023-02-04T09:58:21;99898.38;;;6.03;nan
43814;BME280;29669;55.706;37.656;2023-02-04T10:01:00;99905.16;;;6.04;nan
43814;BME280;29669;55.706;37.656;2023-02-04T10:03:28;99905.94;;;5.95;nan
43814;BME280;29669;55.706;37.656;2023-02-04T10:05:56;99910.53;;;5.92;nan
43814;BME280;29669;55.706;37.656;2023-02-04T10:08:28;99904.44;;;5.93;nan
43814;BME280;29669;55.706;37.656;2023-02-04T10:10:57;99910.72;;;6.00;nan
43814;BME280;29669;55.706;37.656;2023-02-04T10:13:34;99914.94;;;6.10;nan
43814;BME280;29669;55.706;37.656;2023-02-04T10:16:14;99915.25;;;6.17;nan
43814;BME280;29669;55.706;37.656;2023-02-04T10:18:44;99914.69;;;6.23;nan
43814;BME280;29669;55.706;37.656;2023-02-04T10:21:33;99915.81;;;6.30;nan
43814;BME280;29669;55.706;37.656;2023-02-04T10:24:09;99920.19;;;6.39;nan
43814;BME280;29669;55.706;37.656;2023-02-04T10:26:37;99925.91;;;6.52;nan
43814;BME280;29669;55.706;37.656;2023-02-04T10:29:17;99922.66;;;6.69;nan
43814;BME280;29669;55.706;37.656;2023-02-04T10:31:47;99916.44;;;6.81;nan
43814;BME280;29669;55.706;37.656;2023-02-04T10:37:22;99925.53;;;7.04;nan
43814;BME280;29669;55.706;37.656;2023-02-04T10:39:49;99934.47;;;7.19;nan
43814;BME280;29669;55.706;37.656;2023-02-04T10:42:25;99931.50;;;7.14;nan
43814;BME280;29669;55.706;37.656;2023-02-04T10:44:53;99936.13;;;7.11;nan
43814;BME280;29669;55.706;37.656;2023-02-04T10:47:29;99946.59;;;7.19;nan
43814;BME280;29669;55.706;37.656;2023-02-04T10:50:04;99949.03;;;7.20;nan
43814;BME280;29669;55.706;37.656;2023-02-04T10:52:36;99940.75;;;7.07;nan
43814;BME280;29669;55.706;37.656;2023-02-04T10:55:09;99952.28;;;7.03;nan
43814;BME280;29669;55.706;37.656;2023-02-04T10:57:39;99952.44;;;7.02;nan
43814;BME280;29669;55.706;37.656;2023-02-04T11:00:20;99948.75;;;7.04;nan
43814;BME280;29669;55.706;37.656;2023-02-04T11:05:21;99957.72;;;7.10;nan
43814;BME280;29669;55.706;37.656;2023-02-04T11:07:50;99958.53;;;7.10;nan
43814;BME280;29669;55.706;37.656;2023-02-04T11:10:26;99957.31;;;7.05;nan
43814;BME280;29669;55.706;37.656;2023-02-04T11:15:45;99967.19;;;6.71;nan
43814;BME280;29669;55.706;37.656;2023-02-04T11:20:50;99969.84;;;6.41;nan
43814;BME280;29669;55.706;37.656;2023-02-04T11:26:12;99981.44;;;6.56;nan
43814;BME280;29669;55.706;37.656;2023-02-04T11:39:28;99981.28;;;6.57;nan
43814;BME280;29669;55.706;37.656;2023-02-04T11:41:59;99984.25;;;6.53;nan
43814;BME280;29669;55.706;37.656;2023-02-04T11:44:27;99986.94;;;6.42;nan
43814;BME280;29669;55.706;37.656;2023-02-04T11:46:55;99990.97;;;6.25;nan
43814;BME280;29669;55.706;37.656;2023-02-04T11:49:24;99985.75;;;6.16;nan
43814;BME280;29669;55.706;37.656;2023-02-04T11:52:05;99995.13;;;6.17;nan
43814;BME280;29669;55.706;37.656;2023-02-04T11:54:41;100000.13;;;6.09;nan
43814;BME280;29669;55.706;37.656;2023-02-04T11:57:10;100001.59;;;6.02;nan
43814;BME280;29669;55.706;37.656;2023-02-04T11:59:41;100010.50;;;5.98;nan
43814;BME280;29669;55.706;37.656;2023-02-04T12:02:16;100006.41;;;5.95;nan
43814;BME280;29669;55.706;37.656;2023-02-04T12:07:25;100016.03;;;5.93;nan
43814;BME280;29669;55.706;37.656;2023-02-04T12:09:54;100018.75;;;5.92;nan
43814;BME280;29669;55.706;37.656;2023-02-04T12:12:28;100020.53;;;5.80;nan
43814;BME280;29669;55.706;37.656;2023-02-04T12:15:00;100020.47;;;5.70;nan
43814;BME280;29669;55.706;37.656;2023-02-04T12:24:53;100028.28;;;5.28;nan
43814;BME280;29669;55.706;37.656;2023-02-04T12:27:21;100027.38;;;5.18;nan
43814;BME280;29669;55.706;37.656;2023-02-04T12:29:49;100034.31;;;5.06;nan
43814;BME280;29669;55.706;37.656;2023-02-04T12:32:16;100030.81;;;4.96;nan
43814;BME280;29669;55.706;37.656;2023-02-04T12:34:44;100042.09;;;4.84;nan
43814;BME280;29669;55.706;37.656;2023-02-04T12:37:11;100036.72;;;4.76;nan
43814;BME280;29669;55.706;37.656;2023-02-04T12:39:39;100043.16;;;4.70;nan
43814;BME280;29669;55.706;37.656;2023-02-04T12:42:09;100043.75;;;4.63;nan
43814;BME280;29669;55.706;37.656;2023-02-04T12:47:07;100046.81;;;4.46;nan
43814;BME280;29669;55.706;37.656;2023-02-04T12:49:34;100056.50;;;4.42;nan
43814;BME280;29669;55.706;37.656;2023-02-04T12:54:31;100055.69;;;4.31;nan
43814;BME280;29669;55.706;37.656;2023-02-04T12:56:59;100059.28;;;4.28;nan
43814;BME280;29669;55.706;37.656;2023-02-04T12:59:29;100062.94;;;4.26;nan
43814;BME280;29669;55.706;37.656;2023-02-04T13:01:57;100062.31;;;4.22;nan
43814;BME280;29669;55.706;37.656;2023-02-04T13:04:25;100065.00;;;4.21;nan
43814;BME280;29669;55.706;37.656;2023-02-04T13:09:20;100078.22;;;4.16;nan
43814;BME280;29669;55.706;37.656;2023-02-04T13:11:47;100082.75;;;4.13;nan
43814;BME280;29669;55.706;37.656;2023-02-04T13:14:15;100084.59;;;4.11;nan
43814;BME280;29669;55.706;37.656;2023-02-04T13:16:42;100087.28;;;4.09;nan
43814;BME280;29669;55.706;37.656;2023-02-04T13:21:39;100082.16;;;4.09;nan
43814;BME280;29669;55.706;37.656;2023-02-04T13:24:07;100090.81;;;4.08;nan
43814;BME280;29669;55.706;37.656;2023-02-04T13:26:35;100081.81;;;4.03;nan
43814;BME280;29669;55.706;37.656;2023-02-04T13:29:02;100093.69;;;4.04;nan
43814;BME280;29669;55.706;37.656;2023-02-04T13:31:30;100087.97;;;4.00;nan
43814;BME280;29669;55.706;37.656;2023-02-04T13:33:58;100086.56;;;3.96;nan
43814;BME280;29669;55.706;37.656;2023-02-04T13:36:25;100098.38;;;3.99;nan
43814;BME280;29669;55.706;37.656;2023-02-04T13:38:54;100094.28;;;3.96;nan
43814;BME280;29669;55.706;37.656;2023-02-04T13:41:22;100094.94;;;3.87;nan
43814;BME280;29669;55.706;37.656;2023-02-04T13:43:50;100094.84;;;3.89;nan
43814;BME280;29669;55.706;37.656;2023-02-04T13:46:17;100099.84;;;3.90;nan
43814;BME280;29669;55.706;37.656;2023-02-04T13:48:48;100111.91;;;3.90;nan
43814;BME280;29669;55.706;37.656;2023-02-04T13:51:17;100097.13;;;3.80;nan
43814;BME280;29669;55.706;37.656;2023-02-04T13:53:45;100110.78;;;3.81;nan
43814;BME280;29669;55.706;37.656;2023-02-04T13:56:12;100111.94;;;3.77;nan
43814;BME280;29669;55.706;37.656;2023-02-04T13:58:40;100109.72;;;3.72;nan
43814;BME280;29669;55.706;37.656;2023-02-04T14:01:10;100119.88;;;3.74;nan
43814;BME280;29669;55.706;37.656;2023-02-04T14:03:41;100127.47;;;3.75;nan
43814;BME280;29669;55.706;37.656;2023-02-04T14:06:09;100124.00;;;3.76;nan
43814;BME280;29669;55.706;37.656;2023-02-04T14:08:37;100129.81;;;3.78;nan
43814;BME280;29669;55.706;37.656;2023-02-04T14:11:05;100133.09;;;3.80;nan
43814;BME280;29669;55.706;37.656;2023-02-04T14:13:34;100132.38;;;3.78;nan
43814;BME280;29669;55.706;37.656;2023-02-04T14:16:02;100137.03;;;3.73;nan
43814;BME280;29669;55.706;37.656;2023-02-04T14:18:35;100133.03;;;3.69;nan
43814;BME280;29669;55.706;37.656;2023-02-04T14:21:04;100136.44;;;3.70;nan
43814;BME280;29669;55.706;37.656;2023-02-04T14:23:32;100146.38;;;3.74;nan
43814;BME280;29669;55.706;37.656;2023-02-04T14:25:59;100148.94;;;3.74;nan
43814;BME280;29669;55.706;37.656;2023-02-04T14:28:27;100148.84;;;3.76;nan
43814;BME280;29669;55.706;37.656;2023-02-04T14:30:55;100159.31;;;3.73;nan
43814;BME280;29669;55.706;37.656;2023-02-04T14:35:50;100160.56;;;3.67;nan
43814;BME280;29669;55.706;37.656;2023-02-04T14:38:18;100165.09;;;3.64;nan
43814;BME280;29669;55.706;37.656;2023-02-04T14:40:51;100161.22;;;3.58;nan
43814;BME280;29669;55.706;37.656;2023-02-04T14:45:46;100169.41;;;3.63;nan
43814;BME280;29669;55.706;37.656;2023-02-04T14:48:15;100170.59;;;3.59;nan
43814;BME280;29669;55.706;37.656;2023-02-04T14:53:10;100173.47;;;3.55;nan
43814;BME280;29669;55.706;37.656;2023-02-04T14:55:41;100174.41;;;3.54;nan